White River Bluffs, Indiana
Current Conditions -  °F | °C
As of 7:39 AM on Monday 24 Nov 2014 (Local Time) from KBMG Reporting Station
Broken Clouds Broken Clouds  
Wind Chill: 55°   Ceiling: 2300
Heat Index: 55°   Visibility: 10mi
Dew Point: 50°   Wind: 22mph
Humidity: 83%   Direction: 240°WSW
Pressure: 29.25"   Gusts: 30mph
Location:  38.8737°N, 86.4563°W
Report Text: KBMG 241239Z 24019G26KT 10SM SCT019 BKN023 BKN033 13/10 A2925 RMK AO2 PK WND 23029/1220 T01280100
Loading
Personal Weather Stations






























Interactive Weather Map New forecast layout! Learn more

10-Day Weather Forecast

Advertisements
Track Severe Weather on mobile